Time;durP1;ratioP1;P1;durP2;ratioP2;P2;SDS_P1;SDS_P2;PMS_P1;PMS_P2;Temp;Humidity;BMP_temperature;BMP_pressure;BME280_temperature;BME280_humidity;BME280_pressure;Samples;Min_cycle;Max_cycle;Signal;HPM_P1;HPM_P2
2021/08/23 00:02:24;;;;;;;4.53;2.70;;;;;;;;;;5025316;28;20245;-83
2021/08/23 00:04:51;;;;;;;3.30;2.87;;;;;;;;;;5010236;28;20231;-83
2021/08/23 00:07:17;;;;;;;2.67;2.47;;;;;;;;;;5012627;28;20198;-83
2021/08/23 00:09:43;;;;;;;3.67;2.70;;;;;;;;;;5017198;28;20661;-83
2021/08/23 00:12:09;;;;;;;3.97;2.63;;;;;;;;;;5026391;28;20269;-83
2021/08/23 00:14:35;;;;;;;3.07;2.67;;;;;;;;;;5012529;28;20276;-83
2021/08/23 00:17:04;;;;;;;3.80;3.23;;;;;;;;;;5016458;28;20181;-82
2021/08/23 00:19:31;;;;;;;3.57;3.27;;;;;;;;;;5027779;28;20187;-83
2021/08/23 00:22:01;;;;;;;4.53;2.70;;;;;;;;;;5031152;28;20637;-83
2021/08/23 00:24:27;;;;;;;3.87;3.00;;;;;;;;;;5020127;28;20197;-83
2021/08/23 00:26:55;;;;;;;2.50;2.30;;;;;;;;;;5031110;28;20636;-83
2021/08/23 00:29:21;;;;;;;3.10;2.80;;;;;;;;;;5006003;28;21405;-83
2021/08/23 00:31:48;;;;;;;2.57;2.33;;;;;;;;;;5031115;28;20599;-83
2021/08/23 00:34:14;;;;;;;3.87;2.20;;;;;;;;;;5013137;28;20205;-83
2021/08/23 00:36:41;;;;;;;3.43;2.50;;;;;;;;;;5012936;28;20182;-83
2021/08/23 00:39:08;;;;;;;3.03;2.80;;;;;;;;;;5011047;28;20189;-83
2021/08/23 00:41:34;;;;;;;3.93;2.70;;;;;;;;;;5029820;28;20189;-83
2021/08/23 00:44:01;;;;;;;2.87;2.67;;;;;;;;;;5009740;28;20282;-83
2021/08/23 00:46:28;;;;;;;2.67;2.47;;;;;;;;;;5028888;28;20187;-83
2021/08/23 00:48:54;;;;;;;4.67;2.43;;;;;;;;;;5031929;28;20194;-83
2021/08/23 00:51:21;;;;;;;2.83;2.30;;;;;;;;;;5013631;28;20199;-83
2021/08/23 00:53:47;;;;;;;2.87;2.60;;;;;;;;;;5011492;28;20208;-83
2021/08/23 00:56:13;;;;;;;2.73;2.27;;;;;;;;;;5029665;28;20321;-83
2021/08/23 00:58:42;;;;;;;2.63;2.43;;;;;;;;;;5004013;28;20307;-83
2021/08/23 01:01:16;;;;;;;2.50;2.30;;;;;;;;;;4996577;28;20198;-83
2021/08/23 01:03:47;;;;;;;3.07;2.83;;;;;;;;;;4995692;28;20184;-83
2021/08/23 01:06:14;;;;;;;2.43;2.20;;;;;;;;;;5012938;28;20220;-83
2021/08/23 01:08:41;;;;;;;2.83;2.50;;;;;;;;;;5008224;28;20184;-83
2021/08/23 01:11:11;;;;;;;3.53;2.67;;;;;;;;;;5025809;28;20238;-82
2021/08/23 01:13:40;;;;;;;3.13;2.40;;;;;;;;;;5009295;28;20205;-82
2021/08/23 01:16:06;;;;;;;2.40;2.20;;;;;;;;;;5003853;28;20228;-83
2021/08/23 01:18:32;;;;;;;2.67;2.47;;;;;;;;;;5006160;28;20197;-82
2021/08/23 01:21:00;;;;;;;3.83;2.40;;;;;;;;;;4992564;28;20190;-83
2021/08/23 01:23:27;;;;;;;2.57;2.37;;;;;;;;;;5010199;28;20644;-83
2021/08/23 01:25:54;;;;;;;2.63;2.40;;;;;;;;;;5013869;28;20192;-83
2021/08/23 01:28:23;;;;;;;3.33;2.70;;;;;;;;;;5005038;28;20233;-82
2021/08/23 01:31:02;;;;;;;3.10;2.60;;;;;;;;;;5004563;28;20274;-83
2021/08/23 01:33:28;;;;;;;2.57;2.37;;;;;;;;;;5003308;28;20273;-83
2021/08/23 01:35:55;;;;;;;3.10;2.30;;;;;;;;;;4992184;28;20672;-83
2021/08/23 01:38:21;;;;;;;2.80;2.50;;;;;;;;;;5010498;28;20711;-82
2021/08/23 01:40:57;;;;;;;3.20;2.50;;;;;;;;;;4993747;28;20182;-83
2021/08/23 01:43:23;;;;;;;4.10;2.43;;;;;;;;;;5002921;28;20189;-83
2021/08/23 01:45:49;;;;;;;3.30;2.47;;;;;;;;;;5010460;28;20190;-82
2021/08/23 01:48:15;;;;;;;3.17;2.13;;;;;;;;;;5007121;28;20590;-83
2021/08/23 01:50:41;;;;;;;2.73;2.40;;;;;;;;;;4987689;28;20219;-82
2021/08/23 01:53:08;;;;;;;2.57;2.33;;;;;;;;;;5003216;28;20554;-83
2021/08/23 01:55:34;;;;;;;2.87;2.37;;;;;;;;;;4995027;28;20195;-83
2021/08/23 01:58:02;;;;;;;2.70;2.50;;;;;;;;;;5006853;28;20233;-82
2021/08/23 02:00:28;;;;;;;3.27;2.50;;;;;;;;;;5006946;28;20189;-83
2021/08/23 02:02:54;;;;;;;2.17;2.03;;;;;;;;;;5031171;28;20253;-82
2021/08/23 02:05:20;;;;;;;3.73;2.80;;;;;;;;;;5009382;28;20193;-83
2021/08/23 02:07:49;;;;;;;3.17;2.40;;;;;;;;;;5011506;28;20208;-82
2021/08/23 02:10:15;;;;;;;2.63;2.43;;;;;;;;;;5026279;28;20218;-82
2021/08/23 02:12:42;;;;;;;2.30;2.10;;;;;;;;;;5016345;28;20221;-82
2021/08/23 02:15:08;;;;;;;2.93;2.60;;;;;;;;;;5015333;28;20212;-82
2021/08/23 02:17:34;;;;;;;5.00;2.83;;;;;;;;;;5032952;28;20285;-83
2021/08/23 02:20:00;;;;;;;2.80;2.60;;;;;;;;;;5028973;28;20179;-82
2021/08/23 02:22:28;;;;;;;2.57;2.37;;;;;;;;;;5011133;28;20237;-83
2021/08/23 02:24:54;;;;;;;3.13;2.40;;;;;;;;;;5012226;28;20326;-82
2021/08/23 02:27:20;;;;;;;2.30;2.10;;;;;;;;;;5006591;28;20200;-82
2021/08/23 02:29:47;;;;;;;2.63;2.43;;;;;;;;;;5032410;28;20524;-82
2021/08/23 02:32:13;;;;;;;2.93;2.60;;;;;;;;;;5013506;28;20555;-82
2021/08/23 02:34:39;;;;;;;2.50;2.30;;;;;;;;;;5009962;28;20209;-83
2021/08/23 02:37:05;;;;;;;4.03;2.30;;;;;;;;;;5015918;28;20186;-83
2021/08/23 02:39:31;;;;;;;3.67;2.53;;;;;;;;;;5009653;28;20259;-82
2021/08/23 02:42:00;;;;;;;2.50;2.17;;;;;;;;;;5007089;28;20229;-83
2021/08/23 02:44:26;;;;;;;1.90;1.80;;;;;;;;;;5013338;28;20272;-82
2021/08/23 02:46:52;;;;;;;3.23;2.30;;;;;;;;;;5026013;28;20214;-82
2021/08/23 02:49:18;;;;;;;3.03;2.40;;;;;;;;;;5008050;28;20273;-83
2021/08/23 02:51:45;;;;;;;3.27;2.63;;;;;;;;;;5031737;28;20273;-82
2021/08/23 02:54:11;;;;;;;2.53;2.33;;;;;;;;;;5029126;28;20293;-82
2021/08/23 02:56:38;;;;;;;2.50;2.30;;;;;;;;;;5024525;28;20194;-82
2021/08/23 02:59:04;;;;;;;2.53;2.33;;;;;;;;;;5028840;28;20640;-82
2021/08/23 03:01:30;;;;;;;2.30;2.10;;;;;;;;;;5030980;28;20619;-82
2021/08/23 03:03:56;;;;;;;2.20;2.00;;;;;;;;;;5032342;28;20265;-82
2021/08/23 03:06:22;;;;;;;3.00;2.50;;;;;;;;;;5031890;28;20198;-83
2021/08/23 03:08:48;;;;;;;2.93;2.40;;;;;;;;;;5031449;28;20509;-83
2021/08/23 03:11:15;;;;;;;2.73;2.43;;;;;;;;;;5014961;28;20182;-83
2021/08/23 03:13:42;;;;;;;3.10;2.40;;;;;;;;;;5036136;28;20209;-83
2021/08/23 03:16:08;;;;;;;2.90;2.13;;;;;;;;;;5031501;28;20689;-82
2021/08/23 03:18:34;;;;;;;2.50;2.30;;;;;;;;;;5010764;28;20179;-83
2021/08/23 03:21:01;;;;;;;2.47;2.23;;;;;;;;;;5028945;28;20326;-83
2021/08/23 03:23:27;;;;;;;2.40;2.20;;;;;;;;;;5030755;28;20201;-83
2021/08/23 03:25:53;;;;;;;3.03;2.30;;;;;;;;;;5014587;28;20219;-83
2021/08/23 03:28:20;;;;;;;2.67;2.43;;;;;;;;;;5032514;28;20208;-83
2021/08/23 03:30:46;;;;;;;2.60;2.40;;;;;;;;;;5032636;28;20209;-83
2021/08/23 03:33:13;;;;;;;2.90;2.30;;;;;;;;;;5026095;28;20690;-82
2021/08/23 03:35:39;;;;;;;3.20;2.60;;;;;;;;;;5018422;28;20177;-83
2021/08/23 03:38:05;;;;;;;2.80;2.50;;;;;;;;;;5031665;28;20896;-83
2021/08/23 03:40:31;;;;;;;2.70;2.50;;;;;;;;;;5014647;28;20182;-83
2021/08/23 03:42:58;;;;;;;2.60;2.40;;;;;;;;;;5020243;28;20500;-83
2021/08/23 03:45:24;;;;;;;2.90;2.60;;;;;;;;;;5006412;28;20193;-82
2021/08/23 03:47:50;;;;;;;2.60;2.40;;;;;;;;;;5027980;28;20202;-83
2021/08/23 03:50:16;;;;;;;2.87;2.67;;;;;;;;;;5014838;28;20196;-83
2021/08/23 03:52:42;;;;;;;2.73;2.53;;;;;;;;;;5031244;28;20649;-83
2021/08/23 03:55:09;;;;;;;2.83;2.63;;;;;;;;;;5015601;28;20193;-82
2021/08/23 03:57:36;;;;;;;2.77;2.57;;;;;;;;;;5015404;28;20221;-82
2021/08/23 04:00:04;;;;;;;2.40;2.17;;;;;;;;;;5015301;28;20177;-82
2021/08/23 04:02:30;;;;;;;3.13;2.20;;;;;;;;;;5029403;28;20188;-82
2021/08/23 04:04:57;;;;;;;2.93;2.47;;;;;;;;;;5031134;28;20636;-83
2021/08/23 04:07:23;;;;;;;2.33;2.13;;;;;;;;;;5029318;28;20321;-82
2021/08/23 04:09:49;;;;;;;2.63;2.43;;;;;;;;;;5032647;28;20188;-83
2021/08/23 04:12:16;;;;;;;2.57;2.30;;;;;;;;;;5014618;28;20197;-83
2021/08/23 04:14:42;;;;;;;2.97;2.70;;;;;;;;;;5000063;28;20291;-83
2021/08/23 04:17:08;;;;;;;2.90;2.67;;;;;;;;;;5019108;28;20217;-83
2021/08/23 04:19:34;;;;;;;3.00;2.80;;;;;;;;;;5018683;28;20192;-82
2021/08/23 04:22:00;;;;;;;2.83;2.50;;;;;;;;;;5030620;28;20193;-83
2021/08/23 04:24:27;;;;;;;3.30;3.00;;;;;;;;;;5009755;28;20221;-83
2021/08/23 04:26:53;;;;;;;3.70;2.73;;;;;;;;;;5031264;28;20182;-83
2021/08/23 04:29:19;;;;;;;4.80;2.70;;;;;;;;;;5015009;28;21373;-83
2021/08/23 04:31:46;;;;;;;2.63;2.43;;;;;;;;;;5013432;28;20273;-82
2021/08/23 04:34:12;;;;;;;3.90;2.93;;;;;;;;;;5031079;28;20213;-82
2021/08/23 04:36:39;;;;;;;2.80;2.60;;;;;;;;;;5030513;28;20182;-82
2021/08/23 04:39:06;;;;;;;4.40;3.10;;;;;;;;;;5015525;28;20264;-83
2021/08/23 04:41:36;;;;;;;2.90;2.70;;;;;;;;;;5028491;28;20192;-83
2021/08/23 04:44:02;;;;;;;5.00;2.63;;;;;;;;;;5012469;28;20196;-83
2021/08/23 04:46:28;;;;;;;3.57;2.87;;;;;;;;;;5030812;28;20236;-83
2021/08/23 04:48:54;;;;;;;4.10;2.60;;;;;;;;;;5012635;28;20215;-83
2021/08/23 04:51:20;;;;;;;3.00;2.70;;;;;;;;;;5029309;28;20204;-82
2021/08/23 04:53:46;;;;;;;3.77;3.10;;;;;;;;;;5012110;28;20194;-82
2021/08/23 04:56:12;;;;;;;2.67;2.47;;;;;;;;;;5028398;28;20189;-82
2021/08/23 04:58:39;;;;;;;2.67;2.47;;;;;;;;;;5028899;28;20662;-83
2021/08/23 05:01:05;;;;;;;3.13;2.73;;;;;;;;;;5011270;28;20205;-82
2021/08/23 05:03:31;;;;;;;3.23;2.93;;;;;;;;;;5015348;28;20178;-83
2021/08/23 05:05:57;;;;;;;4.33;3.20;;;;;;;;;;5017652;28;20190;-83
2021/08/23 05:08:25;;;;;;;3.63;3.00;;;;;;;;;;5035378;28;20217;-83
2021/08/23 05:10:51;;;;;;;3.77;3.03;;;;;;;;;;5036287;28;20532;-84
2021/08/23 05:13:18;;;;;;;3.40;3.10;;;;;;;;;;5036006;28;20201;-83
2021/08/23 05:15:44;;;;;;;3.57;3.27;;;;;;;;;;5017426;28;20625;-83
2021/08/23 05:18:11;;;;;;;4.03;3.63;;;;;;;;;;5032793;28;20166;-83
2021/08/23 05:20:37;;;;;;;4.20;3.77;;;;;;;;;;5032022;28;20181;-84
2021/08/23 05:23:04;;;;;;;4.07;3.67;;;;;;;;;;5029368;28;20609;-83
2021/08/23 05:25:37;;;;;;;4.07;3.77;;;;;;;;;;5016622;28;20179;-82
2021/08/23 05:28:04;;;;;;;4.77;4.00;;;;;;;;;;5033033;28;20194;-82
2021/08/23 05:30:31;;;;;;;4.87;4.47;;;;;;;;;;5017727;28;20630;-83
2021/08/23 05:33:00;;;;;;;5.30;4.80;;;;;;;;;;5018670;28;20288;-82
2021/08/23 05:35:27;;;;;;;5.27;4.77;;;;;;;;;;5035110;28;20240;-82
2021/08/23 05:37:54;;;;;;;8.90;7.50;;;;;;;;;;5043484;28;20269;-82
2021/08/23 05:40:23;;;;;;;18.37;16.57;;;;;;;;;;5047426;28;20178;-81
2021/08/23 05:42:53;;;;;;;21.57;16.40;;;;;;;;;;5028160;28;20585;-80
2021/08/23 05:45:21;;;;;;;19.70;17.70;;;;;;;;;;5017891;28;20187;-81
2021/08/23 05:47:48;;;;;;;22.77;18.00;;;;;;;;;;5030300;28;20189;-80
2021/08/23 05:50:14;;;;;;;19.97;17.90;;;;;;;;;;5025701;28;20639;-79
2021/08/23 05:52:40;;;;;;;20.10;18.00;;;;;;;;;;5023356;28;20586;-81
2021/08/23 05:55:06;;;;;;;21.20;18.77;;;;;;;;;;5024688;28;20189;-81
2021/08/23 05:57:32;;;;;;;21.73;19.43;;;;;;;;;;5016183;28;20316;-80
2021/08/23 05:59:58;;;;;;;21.73;19.47;;;;;;;;;;5003980;28;20194;-81
2021/08/23 06:02:25;;;;;;;24.40;22.13;;;;;;;;;;5000768;28;20411;-80
2021/08/23 06:04:52;;;;;;;22.23;20.07;;;;;;;;;;5017869;28;20229;-81
2021/08/23 06:07:18;;;;;;;22.00;19.70;;;;;;;;;;5000010;28;20194;-81
2021/08/23 06:09:44;;;;;;;23.27;20.87;;;;;;;;;;5000905;28;20510;-81
2021/08/23 06:12:10;;;;;;;26.13;21.23;;;;;;;;;;5001956;28;20556;-81
2021/08/23 06:14:40;;;;;;;23.37;21.07;;;;;;;;;;5001995;28;20560;-82
2021/08/23 06:17:07;;;;;;;24.43;21.93;;;;;;;;;;5006406;28;20197;-82
2021/08/23 06:19:33;;;;;;;25.53;22.77;;;;;;;;;;5017477;28;20205;-81
2021/08/23 06:21:59;;;;;;;24.67;21.33;;;;;;;;;;5004121;28;20194;-81
2021/08/23 06:24:28;;;;;;;24.57;21.40;;;;;;;;;;5017894;28;20193;-82
2021/08/23 06:26:54;;;;;;;26.70;23.47;;;;;;;;;;5003030;28;20262;-81
2021/08/23 06:29:21;;;;;;;27.87;24.47;;;;;;;;;;5018394;28;20187;-81
2021/08/23 06:31:48;;;;;;;28.43;24.70;;;;;;;;;;5007760;28;20213;-81
2021/08/23 06:34:14;;;;;;;33.93;26.70;;;;;;;;;;5023583;28;20218;-81
2021/08/23 06:36:42;;;;;;;33.30;26.83;;;;;;;;;;5006866;28;20190;-81
2021/08/23 06:39:08;;;;;;;34.53;28.33;;;;;;;;;;5017409;28;20181;-80
2021/08/23 06:41:34;;;;;;;35.73;27.87;;;;;;;;;;5020724;28;20198;-80
2021/08/23 06:44:00;;;;;;;30.83;26.17;;;;;;;;;;5003288;28;20210;-80
2021/08/23 06:46:27;;;;;;;33.40;25.37;;;;;;;;;;5003703;28;20198;-80
2021/08/23 06:48:53;;;;;;;34.47;25.93;;;;;;;;;;5003318;28;20210;-80
2021/08/23 06:51:24;;;;;;;29.37;23.80;;;;;;;;;;5004094;28;20310;-81
2021/08/23 06:53:54;;;;;;;28.03;24.60;;;;;;;;;;5010570;28;20229;-81
2021/08/23 06:56:21;;;;;;;25.70;22.67;;;;;;;;;;5012313;28;20186;-80
2021/08/23 06:58:47;;;;;;;25.27;21.67;;;;;;;;;;5037919;28;20226;-80
2021/08/23 07:01:15;;;;;;;22.97;20.57;;;;;;;;;;5022621;28;20185;-80
2021/08/23 07:03:41;;;;;;;20.80;18.60;;;;;;;;;;5023217;28;20212;-80
2021/08/23 07:06:07;;;;;;;23.50;19.80;;;;;;;;;;5023072;28;20193;-80
2021/08/23 07:08:33;;;;;;;24.17;19.47;;;;;;;;;;5022146;28;20181;-80
2021/08/23 07:11:01;;;;;;;20.73;17.70;;;;;;;;;;5036073;28;20218;-80
2021/08/23 07:13:28;;;;;;;20.37;18.30;;;;;;;;;;5035203;28;20198;-80
2021/08/23 07:15:54;;;;;;;21.03;18.17;;;;;;;;;;5017785;28;20196;-80
2021/08/23 07:18:23;;;;;;;21.43;19.23;;;;;;;;;;5034755;28;20548;-81
2021/08/23 07:20:53;;;;;;;22.47;17.70;;;;;;;;;;5029579;28;20277;-80
2021/08/23 07:23:20;;;;;;;19.57;16.27;;;;;;;;;;5018521;28;20200;-80
2021/08/23 07:25:46;;;;;;;21.00;16.80;;;;;;;;;;5017962;28;20374;-80
2021/08/23 07:28:13;;;;;;;17.90;16.00;;;;;;;;;;5018660;28;20569;-80
2021/08/23 07:30:40;;;;;;;18.97;16.43;;;;;;;;;;5036344;28;20178;-80
2021/08/23 07:33:06;;;;;;;17.33;15.50;;;;;;;;;;5037158;28;20364;-80
2021/08/23 07:35:32;;;;;;;17.77;14.93;;;;;;;;;;5036631;28;20247;-81
2021/08/23 07:37:58;;;;;;;15.13;13.53;;;;;;;;;;5021858;28;20186;-80
2021/08/23 07:40:24;;;;;;;19.17;15.00;;;;;;;;;;5019203;28;20261;-80
2021/08/23 07:42:51;;;;;;;15.13;13.63;;;;;;;;;;5037592;28;20220;-81
2021/08/23 07:45:19;;;;;;;16.53;14.10;;;;;;;;;;5018653;28;20186;-80
2021/08/23 07:47:46;;;;;;;15.00;12.67;;;;;;;;;;5021291;28;20335;-80
2021/08/23 07:50:13;;;;;;;15.10;12.27;;;;;;;;;;5026828;28;20185;-80
2021/08/23 07:52:39;;;;;;;13.93;11.53;;;;;;;;;;5019889;28;20204;-80
2021/08/23 07:55:09;;;;;;;12.53;10.53;;;;;;;;;;5019955;28;20292;-80
2021/08/23 07:57:53;;;;;;;12.73;11.43;;;;;;;;;;5017299;28;20309;-80
2021/08/23 08:00:20;;;;;;;12.23;10.90;;;;;;;;;;5010908;28;20181;-79
2021/08/23 08:02:47;;;;;;;12.80;10.27;;;;;;;;;;5018968;28;20255;-80
2021/08/23 08:05:13;;;;;;;10.00;9.00;;;;;;;;;;5020230;28;20181;-80
2021/08/23 08:07:40;;;;;;;10.73;9.63;;;;;;;;;;5034072;28;20676;-80
2021/08/23 08:10:07;;;;;;;10.23;9.23;;;;;;;;;;5034738;28;20559;-80
2021/08/23 08:12:33;;;;;;;10.57;9.53;;;;;;;;;;5034826;28;20185;-80
2021/08/23 08:14:59;;;;;;;10.60;9.60;;;;;;;;;;5020011;28;20229;-80
2021/08/23 08:17:28;;;;;;;9.40;8.47;;;;;;;;;;5015520;28;20170;-80
2021/08/23 08:19:54;;;;;;;10.70;8.90;;;;;;;;;;5021628;28;20281;-79
2021/08/23 08:22:21;;;;;;;11.27;10.07;;;;;;;;;;5039923;28;20177;-80
2021/08/23 08:24:47;;;;;;;12.43;11.17;;;;;;;;;;5040752;28;20276;-79
2021/08/23 08:27:16;;;;;;;14.20;12.90;;;;;;;;;;5022944;28;20193;-79
2021/08/23 08:29:42;;;;;;;14.73;13.43;;;;;;;;;;5023079;28;20358;-80
2021/08/23 08:32:09;;;;;;;16.03;14.27;;;;;;;;;;5025810;28;20190;-80
2021/08/23 08:34:39;;;;;;;16.60;14.90;;;;;;;;;;5017363;28;20205;-80
2021/08/23 08:37:05;;;;;;;18.40;16.57;;;;;;;;;;5035754;28;20273;-79
2021/08/23 08:39:31;;;;;;;17.03;15.33;;;;;;;;;;5017688;28;20276;-80
2021/08/23 08:41:58;;;;;;;18.73;16.50;;;;;;;;;;5017341;28;20870;-81
2021/08/23 08:44:25;;;;;;;18.63;16.73;;;;;;;;;;5013715;28;20220;-80
2021/08/23 08:46:52;;;;;;;19.60;17.53;;;;;;;;;;5016414;28;20178;-81
2021/08/23 08:49:18;;;;;;;18.73;16.83;;;;;;;;;;5017317;28;20194;-81
2021/08/23 08:51:46;;;;;;;17.50;15.77;;;;;;;;;;5034552;28;20224;-80
2021/08/23 08:54:12;;;;;;;18.93;17.10;;;;;;;;;;5033956;28;20206;-80
2021/08/23 08:56:41;;;;;;;18.63;16.97;;;;;;;;;;5016454;28;20619;-81
2021/08/23 08:59:07;;;;;;;19.97;17.50;;;;;;;;;;5016704;28;20671;-81
2021/08/23 09:01:33;;;;;;;19.10;17.20;;;;;;;;;;5034566;28;20248;-81
2021/08/23 09:04:03;;;;;;;17.50;15.70;;;;;;;;;;5017358;28;20191;-81
2021/08/23 09:06:39;;;;;;;21.03;16.77;;;;;;;;;;5032107;28;20597;-81
2021/08/23 09:09:10;;;;;;;16.07;14.63;;;;;;;;;;5014011;28;20234;-81
2021/08/23 09:11:36;;;;;;;17.47;15.57;;;;;;;;;;5019357;28;20255;-80
2021/08/23 09:14:06;;;;;;;18.70;16.90;;;;;;;;;;5019991;28;20544;-80
2021/08/23 09:16:34;;;;;;;18.00;16.20;;;;;;;;;;5020390;28;20178;-80
2021/08/23 09:19:00;;;;;;;19.53;17.63;;;;;;;;;;5020521;28;20182;-80
2021/08/23 09:21:34;;;;;;;18.60;16.80;;;;;;;;;;5017349;28;20204;-80
2021/08/23 09:24:00;;;;;;;20.30;18.47;;;;;;;;;;5020934;28;20547;-81
2021/08/23 09:26:31;;;;;;;19.67;17.77;;;;;;;;;;5020415;28;20529;-81
2021/08/23 09:29:01;;;;;;;18.83;17.00;;;;;;;;;;5021590;28;20175;-81
2021/08/23 09:31:29;;;;;;;18.30;16.70;;;;;;;;;;5009911;28;20240;-81
2021/08/23 09:33:59;;;;;;;19.23;17.43;;;;;;;;;;5039369;28;20252;-81
2021/08/23 09:36:26;;;;;;;19.23;17.27;;;;;;;;;;5018463;28;20206;-81
2021/08/23 09:39:05;;;;;;;18.03;16.33;;;;;;;;;;5019840;28;20240;-81
2021/08/23 09:41:32;;;;;;;19.73;17.90;;;;;;;;;;5018568;28;20212;-80
2021/08/23 09:44:08;;;;;;;19.77;17.87;;;;;;;;;;5019568;28;20270;-80
2021/08/23 09:46:35;;;;;;;18.93;17.20;;;;;;;;;;5020279;28;20179;-80
2021/08/23 09:49:05;;;;;;;19.53;17.57;;;;;;;;;;5020714;28;20329;-80
2021/08/23 09:51:36;;;;;;;17.13;15.53;;;;;;;;;;5018235;28;20671;-81
2021/08/23 09:54:11;;;;;;;18.10;16.40;;;;;;;;;;5023603;28;20759;-81
2021/08/23 09:56:48;;;;;;;18.10;16.30;;;;;;;;;;5023338;28;20270;-80
2021/08/23 09:59:16;;;;;;;18.63;16.93;;;;;;;;;;5021288;28;20543;-80
2021/08/23 10:01:42;;;;;;;19.47;17.67;;;;;;;;;;5023625;28;20182;-81
2021/08/23 10:04:10;;;;;;;18.90;17.17;;;;;;;;;;5036642;28;20186;-81
2021/08/23 10:06:37;;;;;;;17.73;16.03;;;;;;;;;;5018274;28;20229;-80
2021/08/23 10:09:05;;;;;;;16.43;14.83;;;;;;;;;;5020170;28;20191;-81
2021/08/23 10:11:35;;;;;;;17.93;16.33;;;;;;;;;;5015104;28;20219;-80
2021/08/23 10:14:02;;;;;;;19.38;17.77;;;;;;;;;;5017331;28;20429;-80
2021/08/23 10:16:31;;;;;;;24.23;19.07;;;;;;;;;;5019396;28;20175;-80
2021/08/23 10:18:58;;;;;;;17.43;15.73;;;;;;;;;;5009640;28;20533;-80
2021/08/23 10:21:27;;;;;;;16.03;14.73;;;;;;;;;;5022827;28;20178;-81
2021/08/23 10:23:54;;;;;;;16.37;14.97;;;;;;;;;;5018443;28;20188;-81
2021/08/23 10:26:21;;;;;;;16.77;15.23;;;;;;;;;;5019626;28;20214;-82
2021/08/23 10:28:50;;;;;;;16.07;14.67;;;;;;;;;;5020906;28;20190;-81
2021/08/23 10:31:18;;;;;;;16.50;14.80;;;;;;;;;;5018300;28;20268;-81
2021/08/23 10:33:46;;;;;;;16.80;15.20;;;;;;;;;;5036201;28;20339;-81
2021/08/23 10:36:14;;;;;;;14.43;13.13;;;;;;;;;;5017586;28;20193;-80
2021/08/23 10:38:41;;;;;;;14.57;13.17;;;;;;;;;;5037067;28;20174;-80
2021/08/23 10:41:08;;;;;;;15.87;14.37;;;;;;;;;;5036228;28;20178;-81
2021/08/23 10:43:46;;;;;;;15.03;13.57;;;;;;;;;;5021652;28;20905;-81
2021/08/23 10:46:23;;;;;;;15.10;13.60;;;;;;;;;;5018872;28;20182;-80
2021/08/23 10:48:49;;;;;;;13.03;11.83;;;;;;;;;;5036320;28;20177;-80
2021/08/23 10:51:26;;;;;;;14.73;13.27;;;;;;;;;;5018303;28;20198;-80
2021/08/23 10:53:52;;;;;;;14.47;13.17;;;;;;;;;;5019027;28;20202;-80
2021/08/23 10:56:21;;;;;;;14.13;12.83;;;;;;;;;;5035910;28;20181;-81
2021/08/23 10:58:48;;;;;;;14.40;12.90;;;;;;;;;;5034795;28;20217;-81
2021/08/23 11:01:19;;;;;;;14.93;13.00;;;;;;;;;;5019212;28;20205;-81
2021/08/23 11:03:46;;;;;;;13.77;12.30;;;;;;;;;;5019977;28;20186;-81
2021/08/23 11:06:12;;;;;;;12.57;11.47;;;;;;;;;;5019914;28;20202;-81
2021/08/23 11:08:40;;;;;;;12.63;11.53;;;;;;;;;;5018540;28;20186;-80
2021/08/23 11:11:13;;;;;;;12.87;11.57;;;;;;;;;;5015507;28;20198;-80
2021/08/23 11:13:40;;;;;;;12.37;11.27;;;;;;;;;;5006112;28;20198;-80
2021/08/23 11:16:08;;;;;;;12.73;11.63;;;;;;;;;;5020282;28;20189;-80
2021/08/23 11:18:41;;;;;;;13.90;12.70;;;;;;;;;;5021407;28;20328;-80
2021/08/23 11:21:08;;;;;;;12.93;11.83;;;;;;;;;;5022452;28;20170;-80
2021/08/23 11:23:34;;;;;;;11.93;10.90;;;;;;;;;;5024650;28;20301;-81
2021/08/23 11:26:02;;;;;;;12.80;11.60;;;;;;;;;;5025363;28;20186;-80
2021/08/23 11:28:31;;;;;;;12.60;11.27;;;;;;;;;;5023487;28;20178;-79
2021/08/23 11:31:07;;;;;;;16.63;12.47;;;;;;;;;;5040418;28;20186;-79
2021/08/23 11:33:34;;;;;;;12.53;11.33;;;;;;;;;;5018403;28;20198;-79
2021/08/23 11:36:01;;;;;;;12.83;11.73;;;;;;;;;;5019212;28;20178;-79
2021/08/23 11:38:30;;;;;;;12.93;11.60;;;;;;;;;;5038942;28;20242;-80
2021/08/23 11:40:58;;;;;;;14.97;13.53;;;;;;;;;;5022264;28;20227;-80
2021/08/23 11:43:29;;;;;;;13.63;12.27;;;;;;;;;;5021128;28;20190;-80
2021/08/23 11:45:57;;;;;;;13.40;12.10;;;;;;;;;;5024061;28;20511;-80
2021/08/23 11:48:23;;;;;;;12.60;11.40;;;;;;;;;;5005615;28;20251;-79
2021/08/23 11:50:50;;;;;;;12.23;11.03;;;;;;;;;;5020127;28;20185;-80
2021/08/23 11:53:23;;;;;;;14.20;12.70;;;;;;;;;;5021747;28;20319;-81
2021/08/23 11:55:50;;;;;;;13.53;11.83;;;;;;;;;;5022300;28;20264;-81
2021/08/23 11:58:19;;;;;;;12.83;11.57;;;;;;;;;;5052338;28;20222;-80
2021/08/23 12:00:46;;;;;;;13.23;12.03;;;;;;;;;;5032723;28;20197;-80
2021/08/23 12:03:14;;;;;;;15.10;13.67;;;;;;;;;;5041417;28;20213;-80
2021/08/23 12:05:44;;;;;;;13.67;12.27;;;;;;;;;;5028724;28;20182;-79
2021/08/23 12:08:22;;;;;;;12.60;11.40;;;;;;;;;;5018339;28;20197;-79
2021/08/23 12:10:54;;;;;;;12.67;11.43;;;;;;;;;;5015478;28;20656;-79
2021/08/23 12:13:22;;;;;;;12.90;10.93;;;;;;;;;;5016214;28;20200;-79
2021/08/23 12:15:52;;;;;;;11.33;10.00;;;;;;;;;;5015388;28;20186;-79
2021/08/23 12:18:19;;;;;;;10.70;9.63;;;;;;;;;;5016236;28;20178;-80
2021/08/23 12:21:02;;;;;;;10.93;9.83;;;;;;;;;;5030953;28;20174;-79
2021/08/23 12:23:28;;;;;;;11.73;10.03;;;;;;;;;;5003262;28;20185;-79
2021/08/23 12:26:05;;;;;;;12.00;10.87;;;;;;;;;;5015611;28;20288;-80
2021/08/23 12:28:31;;;;;;;11.97;10.87;;;;;;;;;;5034469;28;20201;-79
2021/08/23 12:31:07;;;;;;;12.13;11.03;;;;;;;;;;5036189;28;20637;-79
2021/08/23 12:33:33;;;;;;;13.93;12.40;;;;;;;;;;5033875;28;20246;-79
2021/08/23 12:35:59;;;;;;;13.70;12.40;;;;;;;;;;5014880;28;20661;-79
2021/08/23 12:38:25;;;;;;;13.07;12.00;;;;;;;;;;5035805;28;20178;-80
2021/08/23 12:40:51;;;;;;;13.57;12.27;;;;;;;;;;5017834;28;20226;-80
2021/08/23 12:43:17;;;;;;;12.60;11.40;;;;;;;;;;5016597;28;20182;-82
2021/08/23 12:45:44;;;;;;;13.07;11.87;;;;;;;;;;5015422;28;20192;-81
2021/08/23 12:48:11;;;;;;;13.13;11.63;;;;;;;;;;5021817;28;20182;-81
2021/08/23 12:50:37;;;;;;;13.10;11.90;;;;;;;;;;5021526;28;20217;-81
2021/08/23 12:53:06;;;;;;;11.50;10.47;;;;;;;;;;5023397;28;20186;-81
2021/08/23 12:55:32;;;;;;;11.43;10.17;;;;;;;;;;5021697;28;20270;-82
2021/08/23 12:57:59;;;;;;;11.10;10.10;;;;;;;;;;5041081;28;20218;-81
2021/08/23 13:00:28;;;;;;;11.83;10.93;;;;;;;;;;5041188;28;20183;-82
2021/08/23 13:02:54;;;;;;;10.50;9.50;;;;;;;;;;5006340;28;20199;-81
2021/08/23 13:05:20;;;;;;;10.03;9.13;;;;;;;;;;5024696;28;20207;-82
2021/08/23 13:07:52;;;;;;;10.00;9.10;;;;;;;;;;5039597;28;20200;-81
2021/08/23 13:10:19;;;;;;;9.60;8.77;;;;;;;;;;5021627;28;20178;-83
2021/08/23 13:12:49;;;;;;;11.00;9.07;;;;;;;;;;5028395;28;20181;-82
2021/08/23 13:15:19;;;;;;;10.23;9.33;;;;;;;;;;5027693;28;20290;-81
2021/08/23 13:17:45;;;;;;;10.60;9.60;;;;;;;;;;5044979;28;20174;-81
2021/08/23 13:20:13;;;;;;;9.03;8.23;;;;;;;;;;5039087;28;20898;-82
2021/08/23 13:22:40;;;;;;;9.23;8.43;;;;;;;;;;5043365;28;20177;-82
2021/08/23 13:25:09;;;;;;;8.67;7.87;;;;;;;;;;5030112;28;20187;-81
2021/08/23 13:27:36;;;;;;;9.57;8.50;;;;;;;;;;5045116;28;20204;-81
2021/08/23 13:30:03;;;;;;;8.53;7.83;;;;;;;;;;5044605;28;20178;-82
2021/08/23 13:32:29;;;;;;;7.40;6.70;;;;;;;;;;5044328;28;20208;-82
2021/08/23 13:34:57;;;;;;;7.40;6.73;;;;;;;;;;5037825;28;20202;-81
2021/08/23 13:37:23;;;;;;;8.33;6.83;;;;;;;;;;5043613;28;20177;-81
2021/08/23 13:39:53;;;;;;;8.33;7.63;;;;;;;;;;5026866;28;20169;-82
2021/08/23 13:42:20;;;;;;;8.23;6.77;;;;;;;;;;5043714;28;20178;-82
2021/08/23 13:44:47;;;;;;;8.00;7.20;;;;;;;;;;5042494;28;20186;-82
2021/08/23 13:47:14;;;;;;;7.73;6.93;;;;;;;;;;5026417;28;20585;-80
2021/08/23 13:49:40;;;;;;;8.17;7.00;;;;;;;;;;5041520;28;20208;-81
2021/08/23 13:52:07;;;;;;;7.60;6.90;;;;;;;;;;5040016;28;20187;-83
2021/08/23 13:54:33;;;;;;;6.87;6.20;;;;;;;;;;5026258;28;20224;-83
2021/08/23 13:56:59;;;;;;;7.23;6.07;;;;;;;;;;5041734;28;20193;-83
2021/08/23 13:59:27;;;;;;;7.60;6.13;;;;;;;;;;5027640;28;20718;-83
2021/08/23 14:01:54;;;;;;;7.13;5.90;;;;;;;;;;5028264;28;20171;-82
2021/08/23 14:04:20;;;;;;;8.07;7.27;;;;;;;;;;5024389;28;20200;-81
2021/08/23 14:06:46;;;;;;;6.93;6.33;;;;;;;;;;5042010;28;20204;-82
2021/08/23 14:09:16;;;;;;;7.60;6.13;;;;;;;;;;5024266;28;20190;-82
2021/08/23 14:11:43;;;;;;;6.70;6.00;;;;;;;;;;5043268;28;20193;-82
2021/08/23 14:14:09;;;;;;;6.73;5.93;;;;;;;;;;5014030;28;20366;-81
2021/08/23 14:16:36;;;;;;;7.83;7.00;;;;;;;;;;5026658;28;20241;-81
2021/08/23 14:19:02;;;;;;;5.87;5.40;;;;;;;;;;5046651;28;20208;-82
2021/08/23 14:21:28;;;;;;;7.33;6.63;;;;;;;;;;5035792;28;20185;-81
2021/08/23 14:23:54;;;;;;;7.47;6.60;;;;;;;;;;5019948;28;20216;-81
2021/08/23 14:26:21;;;;;;;7.00;6.17;;;;;;;;;;5037759;28;20284;-81
2021/08/23 14:28:48;;;;;;;6.80;6.30;;;;;;;;;;5022518;28;20209;-81
2021/08/23 14:31:15;;;;;;;6.23;5.63;;;;;;;;;;5041385;28;20208;-84
2021/08/23 14:33:42;;;;;;;7.80;7.10;;;;;;;;;;5043453;28;20190;-83